Las Cabezas de San Juan, Spain
Current Conditions -  °F | °C
As of 2:00 PM on Saturday 25 Oct 2014 (Local Time) from LEMO Reporting Station
Clear Clear  
Wind Chill: 81°   Ceiling: Unl
Heat Index: 81°   Visibility: 6mi
Dew Point: 39°   Wind: 0mph
Humidity: 23%   Direction: NA
Pressure: 30.03"   Gusts: NA
Location:  36.98°N, 5.94°W
Report Text: LEMO 251200Z 00000KT CAVOK 27/04 Q1017 NOSIG
Loading
Personal Weather Stations






























Interactive Weather Map
Tropical Storm Tracking
New forecast layout! Learn more

10-Day Weather Forecast

Advertisements
Track Severe Weather on mobile